Time;durP1;ratioP1;P1;durP2;ratioP2;P2;SDS_P1;SDS_P2;PMS_P1;PMS_P2;Temp;Humidity;BMP_temperature;BMP_pressure;BME280_temperature;BME280_humidity;BME280_pressure;Samples;Min_cycle;Max_cycle;Signal;HPM_P1;HPM_P2
2023/09/11 00:02:22;;;;;;;18.08;13.40;;;;;;;20.54;88.06;101235.34;5005083;28;20117;-74
2023/09/11 00:04:47;;;;;;;20.48;12.85;;;;;;;20.57;87.85;101232.13;5007095;28;20044;-74
2023/09/11 00:07:14;;;;;;;20.92;12.98;;;;;;;20.54;88.46;101225.25;5005141;28;20029;-75
2023/09/11 00:09:39;;;;;;;16.85;12.02;;;;;;;20.49;88.49;101222.44;5001713;28;20034;-74
2023/09/11 00:12:05;;;;;;;20.27;13.07;;;;;;;20.45;88.42;101224.88;5025044;28;20203;-75
2023/09/11 00:14:31;;;;;;;25.15;13.85;;;;;;;20.40;88.49;101221.22;5007180;28;20391;-74
2023/09/11 00:16:56;;;;;;;21.92;12.13;;;;;;;20.36;88.48;101220.91;5008810;28;20034;-74
2023/09/11 00:19:22;;;;;;;21.88;13.65;;;;;;;20.30;88.62;101216.44;5006009;28;20027;-76
2023/09/11 00:21:47;;;;;;;25.13;14.57;;;;;;;20.29;90.03;101221.09;5001658;28;20049;-77
2023/09/11 00:24:15;;;;;;;22.05;14.90;;;;;;;20.30;89.98;101216.44;5001493;28;20025;-77
2023/09/11 00:26:41;;;;;;;21.05;13.82;;;;;;;20.29;89.36;101225.75;5002405;28;20204;-76
2023/09/11 00:29:06;;;;;;;23.38;13.68;;;;;;;20.20;89.16;101211.72;5005371;28;20022;-76
2023/09/11 00:31:31;;;;;;;22.55;13.57;;;;;;;20.21;89.24;101223.44;5007676;28;20382;-76
2023/09/11 00:34:03;;;;;;;23.20;13.55;;;;;;;20.19;89.20;101218.25;5002982;28;20030;-77
2023/09/11 00:36:28;;;;;;;18.92;13.75;;;;;;;20.13;89.77;101219.25;5003586;28;20029;-76
2023/09/11 00:38:54;;;;;;;19.42;13.52;;;;;;;20.05;90.08;101214.19;5006007;28;20152;-76
2023/09/11 00:41:19;;;;;;;19.70;13.85;;;;;;;19.98;90.29;101208.91;5003529;28;20030;-76
2023/09/11 00:43:45;;;;;;;20.73;13.63;;;;;;;19.96;90.35;101208.34;5007022;28;20038;-76
2023/09/11 00:46:10;;;;;;;20.10;13.55;;;;;;;19.93;91.31;101212.41;5005305;28;20482;-76
2023/09/11 00:48:36;;;;;;;20.25;13.15;;;;;;;20.01;91.03;101210.34;4973537;28;20069;-76
2023/09/11 00:51:01;;;;;;;24.85;13.77;;;;;;;20.04;91.20;101207.91;5004136;28;20025;-76
2023/09/11 00:53:26;;;;;;;23.50;14.02;;;;;;;19.98;91.81;101209.75;5000434;28;20034;-77
2023/09/11 00:55:52;;;;;;;18.83;13.20;;;;;;;20.02;91.75;101215.53;4981809;28;20033;-77
2023/09/11 00:58:17;;;;;;;21.80;15.50;;;;;;;19.96;92.13;101213.81;4963479;28;20832;-77
2023/09/11 01:00:44;;;;;;;21.45;14.73;;;;;;;19.83;92.63;101215.78;5001663;28;20054;-77
2023/09/11 01:03:13;;;;;;;22.02;15.70;;;;;;;19.75;92.88;101207.19;5003621;28;20026;-76
2023/09/11 01:05:39;;;;;;;22.05;14.85;;;;;;;19.65;93.45;101208.72;5001728;28;20093;-76
2023/09/11 01:08:04;;;;;;;27.92;15.70;;;;;;;19.60;93.82;101207.78;4965834;28;20034;-76
2023/09/11 01:10:30;;;;;;;17.90;13.88;;;;;;;19.54;93.66;101210.44;4986209;28;20053;-76
2023/09/11 01:13:02;;;;;;;21.33;15.48;;;;;;;19.49;94.16;101201.34;5004655;28;20108;-76
2023/09/11 01:15:32;;;;;;;20.65;13.75;;;;;;;19.44;94.54;101207.53;4989105;28;20026;-76
2023/09/11 01:18:15;;;;;;;22.38;14.68;;;;;;;19.42;94.44;101208.88;4990391;28;20053;-76
2023/09/11 01:20:51;;;;;;;21.38;13.98;;;;;;;19.38;94.34;101205.81;4985373;28;20034;-76
2023/09/11 01:23:28;;;;;;;15.85;13.15;;;;;;;19.36;94.61;101203.31;5002426;28;20049;-76
2023/09/11 01:26:12;;;;;;;23.95;14.65;;;;;;;19.33;94.78;101194.78;5003267;28;20065;-77
2023/09/11 01:28:56;;;;;;;24.70;15.85;;;;;;;19.28;95.18;101205.63;5007086;28;20042;-77
2023/09/11 01:31:24;;;;;;;20.90;15.50;;;;;;;19.25;95.19;101201.50;5000718;28;20053;-75
2023/09/11 01:33:53;;;;;;;22.60;15.15;;;;;;;19.20;95.36;101194.06;4976346;28;20117;-75
2023/09/11 01:36:19;;;;;;;24.98;14.80;;;;;;;19.21;95.41;101197.59;5012522;28;20022;-75
2023/09/11 01:38:44;;;;;;;20.40;15.02;;;;;;;19.18;95.62;101198.09;5003349;28;20036;-75
2023/09/11 01:41:10;;;;;;;27.95;16.27;;;;;;;19.15;95.92;101191.22;4974336;28;20410;-75
2023/09/11 01:43:36;;;;;;;22.65;16.30;;;;;;;19.11;96.41;101190.06;5004107;28;20091;-75
2023/09/11 01:46:02;;;;;;;24.90;15.07;;;;;;;19.07;96.78;101191.63;4988776;28;20125;-75
2023/09/11 01:48:30;;;;;;;21.30;14.98;;;;;;;19.11;97.23;101190.06;4985934;28;20557;-75
2023/09/11 01:50:56;;;;;;;22.10;15.80;;;;;;;19.08;97.62;101190.53;5003685;28;20109;-75
2023/09/11 01:53:21;;;;;;;22.35;16.13;;;;;;;19.05;97.25;101191.06;4971435;28;20107;-75
2023/09/11 01:55:47;;;;;;;22.60;16.48;;;;;;;19.00;96.96;101183.59;4996247;28;20125;-75
2023/09/11 01:58:12;;;;;;;23.38;16.17;;;;;;;18.94;97.11;101188.13;4972923;28;20037;-75
2023/09/11 02:00:37;;;;;;;27.30;16.95;;;;;;;18.92;98.10;101192.97;5005838;28;20022;-75
2023/09/11 02:03:05;;;;;;;22.08;15.90;;;;;;;18.92;98.02;101182.06;5002231;28;20046;-75
2023/09/11 02:05:30;;;;;;;22.48;15.43;;;;;;;18.89;97.28;101188.00;4991614;28;20523;-75
2023/09/11 02:07:57;;;;;;;20.65;16.10;;;;;;;18.85;97.59;101181.41;5001314;28;20042;-75
2023/09/11 02:10:22;;;;;;;22.65;15.20;;;;;;;18.85;97.56;101186.00;5006933;28;20049;-75
2023/09/11 02:12:51;;;;;;;21.13;16.08;;;;;;;18.82;98.03;101187.34;5003574;28;20026;-75
2023/09/11 02:15:17;;;;;;;20.35;16.23;;;;;;;18.83;98.69;101186.25;5007077;28;20624;-75
2023/09/11 02:17:42;;;;;;;23.85;16.27;;;;;;;18.79;98.75;101183.22;5004030;28;20100;-75
2023/09/11 02:20:08;;;;;;;24.00;16.27;;;;;;;18.80;98.42;101184.03;4999157;28;20034;-75
2023/09/11 02:22:33;;;;;;;22.23;16.00;;;;;;;18.80;99.03;101186.75;5005050;28;20030;-76
2023/09/11 02:24:59;;;;;;;22.70;15.90;;;;;;;18.77;98.57;101179.06;5006349;28;20394;-74
2023/09/11 02:27:24;;;;;;;22.02;16.10;;;;;;;18.71;98.90;101180.84;5008623;28;20053;-74
2023/09/11 02:29:49;;;;;;;21.73;17.38;;;;;;;18.68;99.40;101180.53;4998222;28;20084;-73
2023/09/11 02:32:15;;;;;;;24.42;16.15;;;;;;;18.64;99.82;101181.00;5011532;28;20385;-73
2023/09/11 02:34:40;;;;;;;22.15;16.02;;;;;;;18.69;100.00;101176.72;5003731;28;20427;-73
2023/09/11 02:37:05;;;;;;;23.40;16.30;;;;;;;18.63;100.00;101173.91;5000638;28;20034;-73
2023/09/11 02:39:31;;;;;;;25.00;16.63;;;;;;;18.60;100.00;101179.84;5011005;28;20034;-73
2023/09/11 02:41:56;;;;;;;24.05;15.60;;;;;;;18.57;100.00;101174.84;5007235;28;20026;-73
2023/09/11 02:44:22;;;;;;;20.38;16.70;;;;;;;18.50;100.00;101168.75;5007312;28;20022;-74
2023/09/11 02:46:47;;;;;;;22.35;16.25;;;;;;;18.47;100.00;101170.03;5010749;28;20475;-73
2023/09/11 02:49:12;;;;;;;23.27;16.92;;;;;;;18.46;100.00;101164.84;4998951;28;20030;-73
2023/09/11 02:51:38;;;;;;;21.98;15.45;;;;;;;18.46;100.00;101168.38;5012377;28;20034;-73
2023/09/11 02:54:03;;;;;;;18.58;15.55;;;;;;;18.46;100.00;101159.38;5001801;28;20048;-73
2023/09/11 02:56:34;;;;;;;25.77;16.77;;;;;;;18.47;100.00;101169.22;4989575;28;20363;-73
2023/09/11 02:58:59;;;;;;;26.40;16.63;;;;;;;18.48;100.00;101162.69;5007512;28;20026;-73
2023/09/11 03:01:25;;;;;;;23.80;16.90;;;;;;;18.46;100.00;101160.19;5002335;28;20089;-72
2023/09/11 03:03:50;;;;;;;26.35;17.38;;;;;;;18.44;100.00;101158.78;5008941;28;20387;-73
2023/09/11 03:06:18;;;;;;;28.00;16.58;;;;;;;18.42;100.00;101150.03;5004870;28;20033;-73
2023/09/11 03:08:47;;;;;;;21.70;16.27;;;;;;;18.41;100.00;101149.22;5010097;28;20627;-73
2023/09/11 03:11:12;;;;;;;25.02;17.35;;;;;;;18.40;100.00;101157.63;5005974;28;20033;-73
2023/09/11 03:13:37;;;;;;;22.52;16.40;;;;;;;18.39;100.00;101153.22;5005319;28;20390;-73
2023/09/11 03:16:09;;;;;;;20.95;16.88;;;;;;;18.40;100.00;101147.56;5010662;28;20034;-74
2023/09/11 03:18:36;;;;;;;23.48;17.58;;;;;;;18.41;100.00;101142.91;5008617;28;20029;-73
2023/09/11 03:21:02;;;;;;;25.00;18.55;;;;;;;18.41;100.00;101140.19;5008515;28;20037;-73
2023/09/11 03:23:28;;;;;;;24.42;17.55;;;;;;;18.41;100.00;101137.47;5010947;28;20033;-73
2023/09/11 03:25:54;;;;;;;21.73;17.60;;;;;;;18.40;100.00;101144.81;5003750;28;20108;-75
2023/09/11 03:28:19;;;;;;;26.50;17.70;;;;;;;18.39;100.00;101139.59;5004792;28;20046;-73
2023/09/11 03:30:44;;;;;;;24.80;18.42;;;;;;;18.36;100.00;101140.94;4999159;28;20595;-72
2023/09/11 03:33:10;;;;;;;22.40;18.42;;;;;;;18.32;100.00;101129.69;5006237;28;20045;-75
2023/09/11 03:35:35;;;;;;;25.60;17.45;;;;;;;18.31;100.00;101133.47;5001187;28;20049;-75
2023/09/11 03:38:07;;;;;;;21.58;16.90;;;;;;;18.34;100.00;101126.72;4986141;28;20042;-72
2023/09/11 03:40:32;;;;;;;25.40;18.50;;;;;;;18.35;100.00;101122.09;5019123;28;20110;-74
2023/09/11 03:42:57;;;;;;;21.42;16.88;;;;;;;18.33;100.00;101125.06;5025292;28;20022;-73
2023/09/11 03:45:23;;;;;;;24.55;17.55;;;;;;;18.31;100.00;101125.31;5021535;28;20083;-75
2023/09/11 03:47:49;;;;;;;22.45;18.13;;;;;;;18.30;100.00;101120.91;5013928;28;20028;-75
2023/09/11 03:50:15;;;;;;;20.48;15.98;;;;;;;18.31;100.00;101125.31;5011861;28;20026;-74
2023/09/11 03:52:41;;;;;;;23.65;16.95;;;;;;;18.28;100.00;101117.59;5005275;28;20053;-74
2023/09/11 03:55:06;;;;;;;24.58;17.55;;;;;;;18.26;100.00;101108.03;5003151;28;20022;-74
2023/09/11 04:00:07;;;;;;;23.27;18.03;;;;;;;18.27;100.00;101105.06;5691458;23;20055;-74
2023/09/11 04:02:33;;;;;;;24.95;17.70;;;;;;;18.28;100.00;101100.41;5008644;28;20394;-74
2023/09/11 04:05:00;;;;;;;29.05;19.02;;;;;;;18.23;100.00;101095.69;5003914;28;20107;-76
2023/09/11 04:07:25;;;;;;;27.27;19.10;;;;;;;18.22;100.00;101104.13;4999720;28;20394;-76
2023/09/11 04:09:50;;;;;;;21.60;17.65;;;;;;;18.21;100.00;101099.75;5000948;28;20038;-77
2023/09/11 04:12:17;;;;;;;25.30;17.42;;;;;;;18.21;100.00;101113.38;5000954;28;20362;-78
2023/09/11 04:14:52;;;;;;;24.70;18.75;;;;;;;18.15;100.00;101099.63;5008599;28;20033;-77
2023/09/11 04:17:27;;;;;;;23.15;18.05;;;;;;;18.11;100.00;101100.38;5012933;28;20030;-74
2023/09/11 04:19:52;;;;;;;25.88;19.55;;;;;;;18.08;100.00;101100.84;4998238;28;20021;-76
2023/09/11 04:22:18;;;;;;;25.05;19.75;;;;;;;18.10;100.00;101102.25;5003309;28;20034;-76
2023/09/11 04:24:43;;;;;;;25.48;19.95;;;;;;;18.07;100.00;101104.63;4996813;28;20030;-76
2023/09/11 04:27:09;;;;;;;25.60;18.77;;;;;;;18.07;100.00;101099.19;5005022;28;20048;-76
2023/09/11 04:29:34;;;;;;;26.25;19.60;;;;;;;18.06;100.00;101094.81;5004708;28;20120;-76
2023/09/11 04:32:00;;;;;;;23.13;18.77;;;;;;;18.05;100.00;101093.16;5008505;28;20046;-76
2023/09/11 04:34:27;;;;;;;26.25;18.73;;;;;;;17.98;100.00;101096.84;5003580;28;20037;-75
2023/09/11 04:36:52;;;;;;;23.40;16.95;;;;;;;17.96;100.00;101103.56;4996301;28;20084;-74
2023/09/11 04:39:18;;;;;;;26.15;18.33;;;;;;;17.94;100.00;101090.19;5001445;28;20117;-74
2023/09/11 04:41:46;;;;;;;25.58;19.33;;;;;;;17.88;100.00;101094.72;5010136;28;20032;-74
2023/09/11 04:44:11;;;;;;;25.17;19.27;;;;;;;17.86;100.00;101090.56;5009098;28;20128;-75
2023/09/11 04:46:37;;;;;;;23.63;17.40;;;;;;;17.81;100.00;101095.91;5006149;28;20424;-75
2023/09/11 04:49:03;;;;;;;22.73;19.92;;;;;;;17.78;100.00;101094.47;5010125;23;20492;-75
2023/09/11 04:51:28;;;;;;;28.90;19.60;;;;;;;17.76;100.00;101095.78;4990109;28;20046;-75
2023/09/11 04:53:54;;;;;;;25.98;19.98;;;;;;;17.73;100.00;101089.75;4995590;28;20021;-75
2023/09/11 04:56:19;;;;;;;28.13;21.58;;;;;;;17.76;100.00;101082.19;4983002;28;20056;-75
2023/09/11 04:58:44;;;;;;;31.27;21.95;;;;;;;17.79;100.00;101084.44;4980859;28;20027;-75
2023/09/11 05:01:10;;;;;;;27.63;21.88;;;;;;;17.81;100.00;101079.56;4987730;28;20030;-74
2023/09/11 05:03:35;;;;;;;28.20;21.73;;;;;;;17.86;100.00;101087.84;4990951;28;20631;-75
2023/09/11 05:06:01;;;;;;;30.00;21.77;;;;;;;17.90;100.00;101090.94;4993080;28;20019;-75
2023/09/11 05:08:26;;;;;;;26.13;20.10;;;;;;;17.95;100.00;101083.69;4991726;28;20499;-75
2023/09/11 05:10:51;;;;;;;25.02;21.33;;;;;;;17.95;100.00;101085.56;4978397;28;20034;-75
2023/09/11 05:13:17;;;;;;;24.08;21.00;;;;;;;17.97;100.00;101089.72;4992092;28;20030;-75
2023/09/11 05:15:43;;;;;;;32.08;22.35;;;;;;;17.97;100.00;101094.31;5005436;28;20022;-75
2023/09/11 05:18:08;;;;;;;28.45;21.02;;;;;;;17.99;100.00;101086.78;4990933;28;20038;-75
2023/09/11 05:20:33;;;;;;;28.63;23.02;;;;;;;18.00;100.00;101093.88;4987632;28;20022;-76
2023/09/11 05:22:59;;;;;;;26.80;20.90;;;;;;;18.06;100.00;101095.66;4983801;28;20038;-78
2023/09/11 05:25:24;;;;;;;29.35;21.55;;;;;;;18.10;100.00;101098.72;4985402;28;20041;-78
2023/09/11 05:27:50;;;;;;;28.02;21.83;;;;;;;18.14;100.00;101100.69;4985628;28;20140;-77
2023/09/11 05:30:15;;;;;;;23.58;19.65;;;;;;;18.21;100.00;101099.75;4990290;28;20496;-77
2023/09/11 05:32:41;;;;;;;25.25;20.55;;;;;;;18.31;100.00;101095.31;4992061;28;20030;-77
2023/09/11 05:35:06;;;;;;;27.55;20.45;;;;;;;18.43;100.00;101089.84;4994217;28;20027;-77
2023/09/11 05:37:35;;;;;;;24.88;19.23;;;;;;;18.50;100.00;101097.84;4987611;28;20076;-77
2023/09/11 05:40:02;;;;;;;23.35;19.17;;;;;;;18.58;100.00;101088.44;4985995;28;20121;-77
2023/09/11 05:42:27;;;;;;;25.55;18.98;;;;;;;18.64;100.00;101090.19;4989901;28;20055;-75
2023/09/11 05:44:53;;;;;;;26.60;19.55;;;;;;;18.73;100.00;101079.69;4984652;28;20150;-77
2023/09/11 05:47:19;;;;;;;29.35;19.45;;;;;;;18.83;100.00;101084.50;4984050;28;20105;-78
2023/09/11 05:49:44;;;;;;;27.27;19.90;;;;;;;18.91;100.00;101092.28;4984929;28;20181;-77
2023/09/11 05:52:10;;;;;;;29.92;19.20;;;;;;;19.07;100.00;101091.50;4991057;28;20522;-77
2023/09/11 05:54:35;;;;;;;22.25;17.08;;;;;;;19.21;100.00;101082.97;4991623;28;20029;-78
2023/09/11 05:57:02;;;;;;;23.33;17.15;;;;;;;19.31;100.00;101085.03;4992303;28;20030;-77
2023/09/11 05:59:27;;;;;;;23.23;17.23;;;;;;;19.52;99.82;101086.13;4992483;28;20049;-75
2023/09/11 06:01:53;;;;;;;22.73;16.63;;;;;;;20.04;95.91;101092.31;4991853;28;20451;-78
2023/09/11 06:04:18;;;;;;;24.35;17.45;;;;;;;20.44;93.37;101089.22;4973975;28;20518;-77
2023/09/11 06:06:43;;;;;;;27.52;16.10;;;;;;;20.82;91.43;101097.53;4990586;28;20053;-78
2023/09/11 06:09:09;;;;;;;22.38;17.02;;;;;;;20.98;89.10;101106.72;4974079;28;20026;-78
2023/09/11 06:11:35;;;;;;;25.83;15.98;;;;;;;21.76;86.18;101099.03;4991387;28;20030;-77
2023/09/11 06:14:04;;;;;;;25.38;15.93;;;;;;;22.47;82.10;101107.81;4991480;28;20018;-76
2023/09/11 06:16:29;;;;;;;23.65;15.23;;;;;;;22.99;79.30;101105.94;4988858;28;20105;-76
2023/09/11 06:18:55;;;;;;;23.80;14.65;;;;;;;23.50;76.60;101107.00;4990066;28;20037;-76
2023/09/11 06:21:21;;;;;;;21.33;14.32;;;;;;;23.87;73.67;101105.78;4987936;28;20134;-78
2023/09/11 06:23:46;;;;;;;25.63;15.07;;;;;;;23.85;74.01;101108.81;4992112;28;20034;-77
2023/09/11 06:26:12;;;;;;;22.83;14.18;;;;;;;24.29;71.75;101106.44;4990500;28;20045;-79
2023/09/11 06:28:37;;;;;;;22.48;14.55;;;;;;;24.88;69.42;101101.13;4995775;28;20037;-78
2023/09/11 06:31:03;;;;;;;20.45;12.93;;;;;;;25.55;66.22;101104.09;4991613;28;20521;-78
2023/09/11 06:33:28;;;;;;;23.63;12.80;;;;;;;26.13;63.74;101107.81;4990696;28;20037;-78
2023/09/11 06:35:54;;;;;;;22.33;13.00;;;;;;;26.41;62.77;101108.00;4990570;28;20046;-78
2023/09/11 06:38:20;;;;;;;20.23;12.68;;;;;;;26.92;60.38;101113.88;4991348;28;20026;-78
2023/09/11 06:40:49;;;;;;;18.65;11.60;;;;;;;27.65;57.76;101122.53;4971624;28;20019;-82
2023/09/11 06:43:17;;;;;;;17.83;11.18;;;;;;;28.67;55.26;101126.19;4992071;28;20030;-80
2023/09/11 06:45:43;;;;;;;18.70;11.00;;;;;;;29.15;53.03;101130.28;4988595;28;20042;-80
2023/09/11 06:48:10;;;;;;;17.17;10.57;;;;;;;29.58;51.55;101125.31;4991450;28;20100;-80
2023/09/11 06:50:35;;;;;;;13.68;10.15;;;;;;;29.63;51.26;101125.19;4989823;28;20454;-78
2023/09/11 06:53:06;;;;;;;19.20;10.55;;;;;;;29.74;50.47;101126.53;4976260;28;20129;-79
2023/09/11 06:55:34;;;;;;;16.98;9.93;;;;;;;29.58;50.68;101122.53;4988854;28;20585;-79
2023/09/11 06:58:01;;;;;;;16.58;11.07;;;;;;;30.07;49.29;101130.88;4991820;28;20090;-77
2023/09/11 07:00:27;;;;;;;19.63;10.75;;;;;;;29.99;49.75;101124.19;4990557;28;20089;-76
2023/09/11 07:02:52;;;;;;;19.92;10.75;;;;;;;30.18;49.63;101123.88;4989775;28;20172;-77
2023/09/11 07:05:20;;;;;;;16.60;10.57;;;;;;;30.05;49.43;101125.66;4990772;28;20026;-76
2023/09/11 07:07:46;;;;;;;17.45;10.07;;;;;;;29.90;50.49;101117.75;4990046;28;20037;-76
2023/09/11 07:10:17;;;;;;;15.27;10.32;;;;;;;30.37;48.14;101106.88;4969551;28;20034;-78
2023/09/11 07:12:46;;;;;;;15.82;9.18;;;;;;;30.32;48.53;101111.78;4990469;28;20030;-77
2023/09/11 07:15:12;;;;;;;20.23;10.15;;;;;;;30.27;48.31;101104.44;4989901;28;20048;-76
2023/09/11 07:17:37;;;;;;;15.60;10.32;;;;;;;30.28;47.95;101100.53;4989653;28;20825;-76
2023/09/11 07:20:04;;;;;;;57.80;12.15;;;;;;;30.31;49.15;101094.31;4991354;28;20080;-75
2023/09/11 07:22:30;;;;;;;18.85;10.90;;;;;;;29.43;50.35;101083.00;4991356;28;20053;-75
2023/09/11 07:24:55;;;;;;;17.67;10.25;;;;;;;29.88;50.39;101086.72;4989138;28;20026;-75
2023/09/11 07:27:23;;;;;;;19.65;10.35;;;;;;;30.24;48.40;101097.59;4988184;28;20030;-76
2023/09/11 07:29:49;;;;;;;28.95;11.63;;;;;;;30.33;47.52;101097.59;4990871;28;20486;-78
2023/09/11 07:32:16;;;;;;;45.67;10.90;;;;;;;30.47;47.61;101097.41;4990254;28;20149;-75
2023/09/11 07:34:42;;;;;;;20.95;10.35;;;;;;;30.31;49.02;101099.88;4990008;28;20034;-76
2023/09/11 07:37:07;;;;;;;35.33;10.27;;;;;;;30.74;47.50;101100.22;4989337;28;20139;-77
2023/09/11 07:39:33;;;;;;;15.63;9.45;;;;;;;30.89;47.21;101104.44;4990161;28;20059;-76
2023/09/11 07:41:59;;;;;;;17.63;9.20;;;;;;;31.48;45.30;101094.66;4992745;28;20053;-77
2023/09/11 07:44:24;;;;;;;15.05;8.50;;;;;;;31.87;43.96;101101.00;4991630;28;20046;-77
2023/09/11 07:46:50;;;;;;;16.30;9.63;;;;;;;32.44;41.67;101096.84;4990098;28;20069;-76
2023/09/11 07:49:16;;;;;;;13.90;8.20;;;;;;;32.69;41.64;101102.50;4971731;28;20042;-76
2023/09/11 07:51:41;;;;;;;13.75;8.85;;;;;;;33.12;40.61;101100.47;4989537;28;20216;-77
2023/09/11 07:54:07;;;;;;;14.60;8.32;;;;;;;33.35;40.26;101103.66;4989688;28;20022;-77
2023/09/11 07:56:33;;;;;;;15.40;8.75;;;;;;;33.11;39.78;101107.19;4982769;28;20108;-77
2023/09/11 07:59:00;;;;;;;12.00;7.80;;;;;;;33.58;39.94;101100.41;4992359;28;20034;-78
2023/09/11 08:01:26;;;;;;;14.57;8.27;;;;;;;33.93;39.09;101102.75;4984189;28;20032;-78
2023/09/11 08:03:51;;;;;;;18.33;8.63;;;;;;;34.49;36.75;101095.63;4990885;28;20034;-77
2023/09/11 08:06:17;;;;;;;12.90;8.25;;;;;;;33.89;38.13;101082.25;4992310;28;20034;-77
2023/09/11 08:08:42;;;;;;;16.08;7.93;;;;;;;33.86;38.15;101091.34;4997906;28;20027;-77
2023/09/11 08:11:17;;;;;;;12.43;7.88;;;;;;;33.46;38.56;101092.03;4995019;28;20030;-78
2023/09/11 08:13:43;;;;;;;16.67;8.00;;;;;;;33.23;39.10;101104.44;4985674;28;20096;-75
2023/09/11 08:16:09;;;;;;;20.02;8.43;;;;;;;33.24;38.51;101106.06;4984075;28;20585;-76
2023/09/11 08:18:34;;;;;;;15.80;7.88;;;;;;;33.44;39.17;101106.38;4982869;28;20034;-75
2023/09/11 08:21:00;;;;;;;17.08;7.65;;;;;;;33.15;39.29;101107.34;4990864;28;20030;-75
2023/09/11 08:23:25;;;;;;;56.15;9.48;;;;;;;34.42;36.90;101104.63;4982669;28;20025;-75
2023/09/11 08:25:56;;;;;;;14.38;7.20;;;;;;;34.79;35.86;101102.84;4991145;28;20121;-74
2023/09/11 08:28:21;;;;;;;27.60;8.27;;;;;;;34.82;36.04;101102.94;4997375;28;20017;-73
2023/09/11 08:30:46;;;;;;;122.10;12.27;;;;;;;34.89;35.67;101105.09;4987711;28;20029;-76
2023/09/11 08:33:12;;;;;;;19.88;7.43;;;;;;;34.23;37.30;101090.44;4979603;28;20446;-76
2023/09/11 08:35:37;;;;;;;151.15;13.25;;;;;;;34.66;35.90;101085.31;4989472;28;20026;-75
2023/09/11 08:38:03;;;;;;;37.33;8.73;;;;;;;34.86;35.76;101084.25;4990108;28;20031;-75
2023/09/11 08:40:30;;;;;;;20.63;8.15;;;;;;;35.04;35.12;101092.34;4986163;28;20029;-75
2023/09/11 08:42:55;;;;;;;24.65;8.85;;;;;;;34.97;35.37;101094.94;4992771;28;20030;-75
2023/09/11 08:45:21;;;;;;;14.40;8.30;;;;;;;34.65;35.87;101092.06;4987113;28;20022;-75
2023/09/11 08:47:46;;;;;;;15.23;8.00;;;;;;;34.82;35.85;101091.75;4976421;28;20548;-76
2023/09/11 08:50:12;;;;;;;11.70;7.45;;;;;;;34.92;35.78;101094.03;4958541;28;20364;-75
2023/09/11 08:52:37;;;;;;;16.25;7.70;;;;;;;34.81;36.02;101090.13;4974170;28;20223;-78
2023/09/11 08:55:06;;;;;;;11.35;8.00;;;;;;;34.63;36.46;101083.22;4940369;28;20800;-77
2023/09/11 08:57:32;;;;;;;15.88;7.65;;;;;;;34.18;37.17;101097.09;4977438;28;20042;-77
2023/09/11 09:00:03;;;;;;;14.48;7.60;;;;;;;33.90;37.65;101092.25;4988806;28;20495;-77
2023/09/11 09:02:29;;;;;;;9.55;7.30;;;;;;;34.40;36.25;101097.75;4969858;28;20034;-77
2023/09/11 09:04:54;;;;;;;13.23;7.25;;;;;;;34.50;36.64;101096.47;4989819;28;20069;-77
2023/09/11 09:07:20;;;;;;;12.55;7.68;;;;;;;33.87;37.23;101092.97;4998006;28;20080;-75
2023/09/11 09:09:45;;;;;;;13.32;7.32;;;;;;;34.78;35.98;101096.41;4990308;28;20034;-76
2023/09/11 09:12:10;;;;;;;12.88;7.45;;;;;;;35.33;34.84;101099.50;4955368;28;20041;-77
2023/09/11 09:14:46;;;;;;;15.02;7.03;;;;;;;35.61;34.83;101097.78;4992413;28;20394;-77
2023/09/11 09:17:11;;;;;;;11.88;6.82;;;;;;;35.87;34.49;101101.97;4958168;28;20034;-76
2023/09/11 09:19:36;;;;;;;12.80;7.25;;;;;;;34.50;36.18;101091.66;4993435;28;20092;-74
2023/09/11 09:22:02;;;;;;;9.95;6.63;;;;;;;34.08;37.22;101092.00;4998261;28;20097;-75
2023/09/11 09:24:30;;;;;;;11.33;6.53;;;;;;;34.91;35.70;101088.78;4994839;28;20177;-77
2023/09/11 09:27:00;;;;;;;9.75;7.32;;;;;;;34.63;36.11;101097.19;4996419;28;20033;-76
2023/09/11 09:29:25;;;;;;;14.65;7.28;;;;;;;34.83;35.89;101101.75;5164335;23;20112;-75
2023/09/11 09:31:51;;;;;;;11.90;7.15;;;;;;;34.86;35.95;101095.44;5021484;28;20026;-76
2023/09/11 09:34:16;;;;;;;11.63;7.90;;;;;;;35.12;35.88;101096.13;5019018;28;20405;-75
2023/09/11 09:36:51;;;;;;;15.90;7.90;;;;;;;34.46;37.90;101096.34;5011723;28;20030;-75
2023/09/11 09:39:16;;;;;;;11.23;7.60;;;;;;;35.53;35.76;101102.41;5000939;28;20109;-76
2023/09/11 09:42:12;;;;;;;15.43;6.65;;;;;;;36.04;33.93;101104.38;4993814;28;20418;-76
2023/09/11 09:44:41;;;;;;;12.80;7.13;;;;;;;35.88;34.90;101096.00;4989641;28;20041;-76
2023/09/11 09:47:19;;;;;;;11.60;6.38;;;;;;;36.20;34.42;101100.69;5010562;28;20030;-75
2023/09/11 09:49:52;;;;;;;18.00;6.43;;;;;;;34.09;36.20;101105.63;5007642;28;20133;-75
2023/09/11 09:52:19;;;;;;;9.75;6.70;;;;;;;34.36;35.65;101108.00;5010468;28;20052;-74
2023/09/11 09:54:51;;;;;;;12.48;6.47;;;;;;;33.83;36.99;101104.00;5009595;28;20026;-73
2023/09/11 09:57:18;;;;;;;9.63;5.85;;;;;;;34.22;36.61;101098.03;5012582;28;20034;-75
2023/09/11 09:59:57;;;;;;;11.55;6.50;;;;;;;35.65;33.98;101099.47;5011526;28;20094;-75
2023/09/11 10:02:30;;;;;;;9.98;6.05;;;;;;;35.68;34.39;101095.13;5007514;28;20056;-75
2023/09/11 10:05:01;;;;;;;8.77;6.72;;;;;;;35.95;33.28;101095.38;5014569;28;20095;-75
2023/09/11 10:07:50;;;;;;;13.52;7.45;;;;;;;35.38;34.23;101090.00;5001684;28;20065;-75
2023/09/11 10:10:26;;;;;;;11.43;7.00;;;;;;;35.71;33.97;101086.00;5013155;28;20242;-74
2023/09/11 10:13:10;;;;;;;12.82;7.18;;;;;;;35.46;34.65;101080.66;5010562;28;20026;-74
2023/09/11 10:15:37;;;;;;;14.55;7.00;;;;;;;35.45;34.74;101081.00;5022270;28;20706;-74
2023/09/11 10:18:02;;;;;;;14.32;7.20;;;;;;;33.24;38.96;101074.56;5010086;28;20065;-73
2023/09/11 10:20:28;;;;;;;12.02;7.20;;;;;;;35.78;34.74;101062.94;5010802;28;20041;-74
2023/09/11 10:23:00;;;;;;;10.90;6.55;;;;;;;36.56;32.52;101067.81;5004986;28;20029;-74
2023/09/11 10:25:28;;;;;;;12.43;6.95;;;;;;;35.67;34.54;101065.50;5009973;28;20218;-74
2023/09/11 10:28:04;;;;;;;11.00;7.43;;;;;;;34.16;37.46;101058.34;5002047;28;20030;-74
2023/09/11 10:30:52;;;;;;;10.77;6.78;;;;;;;36.83;32.63;101045.47;5002374;28;20026;-75
2023/09/11 10:33:24;;;;;;;9.60;7.22;;;;;;;36.13;33.60;101055.72;4983118;28;20081;-75
2023/09/11 10:35:56;;;;;;;48.22;8.80;;;;;;;37.32;32.24;101057.97;4990908;28;20022;-76
2023/09/11 10:38:21;;;;;;;11.57;6.90;;;;;;;37.31;31.95;101062.75;5009156;28;20133;-75
2023/09/11 10:40:46;;;;;;;11.75;7.35;;;;;;;37.15;32.53;101059.28;5009744;28;20360;-75
2023/09/11 10:43:12;;;;;;;12.80;7.70;;;;;;;34.86;35.71;101050.69;4972211;28;20030;-75
2023/09/11 10:45:37;;;;;;;10.93;7.03;;;;;;;36.47;33.76;101059.63;4995036;28;20434;-75
2023/09/11 10:48:03;;;;;;;12.13;6.85;;;;;;;35.97;34.13;101059.41;5007019;28;20076;-77
2023/09/11 10:50:37;;;;;;;11.93;6.72;;;;;;;36.32;34.00;101058.53;5002267;28;20272;-76
2023/09/11 10:53:07;;;;;;;12.00;6.70;;;;;;;37.04;32.13;101058.31;4992954;28;20039;-78
2023/09/11 10:55:33;;;;;;;11.73;7.00;;;;;;;36.58;32.36;101059.84;4992557;28;20028;-77
2023/09/11 10:57:58;;;;;;;10.38;6.50;;;;;;;37.37;31.82;101056.81;5011254;28;20037;-77
2023/09/11 11:00:25;;;;;;;12.43;7.88;;;;;;;36.16;32.53;101057.81;5012771;28;20014;-77
2023/09/11 11:02:52;;;;;;;8.35;6.93;;;;;;;36.22;33.52;101048.72;4987816;28;20536;-77
2023/09/11 11:05:17;;;;;;;11.15;6.93;;;;;;;36.45;33.40;101047.19;4968849;28;20372;-78
2023/09/11 11:07:42;;;;;;;10.90;6.60;;;;;;;36.75;33.50;101043.72;4999048;28;20014;-74
2023/09/11 11:10:15;;;;;;;11.40;6.93;;;;;;;37.48;31.24;101046.59;4973914;28;20433;-75
2023/09/11 11:12:42;;;;;;;12.77;7.30;;;;;;;35.72;34.22;101048.44;5003880;28;20018;-75